sensor_id;sensor_type;location;lat;lon;timestamp;pressure;altitude;pressure_sealevel;temperature;humidity
56074;BME280;41950;55.840;37.442;2023-04-21T00:01:13;99804.94;;;8.78;33.29
56074;BME280;41950;55.840;37.442;2023-04-21T00:03:39;99654.66;;;7.94;33.42
56074;BME280;41950;55.840;37.442;2023-04-21T00:06:07;99664.03;;;8.10;33.68
56074;BME280;41950;55.840;37.442;2023-04-21T00:08:34;99824.66;;;8.90;33.73
56074;BME280;41950;55.840;37.442;2023-04-21T00:11:07;99700.09;;;8.28;33.48
56074;BME280;41950;55.840;37.442;2023-04-21T00:13:37;99740.47;;;8.51;33.34
56074;BME280;41950;55.840;37.442;2023-04-21T00:16:03;99613.47;;;7.75;34.03
56074;BME280;41950;55.840;37.442;2023-04-21T00:18:32;99785.09;;;8.76;33.69
56074;BME280;41950;55.840;37.442;2023-04-21T00:21:00;99632.31;;;7.88;33.97
56074;BME280;41950;55.840;37.442;2023-04-21T00:23:27;99745.63;;;8.48;33.91
56074;BME280;41950;55.840;37.442;2023-04-21T00:25:53;99542.25;;;7.36;34.05
56074;BME280;41950;55.840;37.442;2023-04-21T00:28:19;99616.09;;;7.63;34.36
56074;BME280;41950;55.840;37.442;2023-04-21T00:30:44;99779.09;;;8.71;34.22
56074;BME280;41950;55.840;37.442;2023-04-21T00:33:10;99720.75;;;8.31;34.66
56074;BME280;41950;55.840;37.442;2023-04-21T00:35:36;99449.78;;;6.68;34.93
56074;BME280;41950;55.840;37.442;2023-04-21T00:38:02;99647.09;;;7.66;34.71
56074;BME280;41950;55.840;37.442;2023-04-21T00:40:29;99757.84;;;8.29;34.98
56074;BME280;41950;55.840;37.442;2023-04-21T00:42:55;99664.34;;;7.67;35.15
56074;BME280;41950;55.840;37.442;2023-04-21T00:45:21;99695.19;;;7.86;35.31
56074;BME280;41950;55.840;37.442;2023-04-21T00:47:47;99612.84;;;7.35;35.22
56074;BME280;41950;55.840;37.442;2023-04-21T00:50:13;99642.88;;;7.52;35.57
56074;BME280;41950;55.840;37.442;2023-04-21T00:52:40;99690.94;;;7.79;35.43
56074;BME280;41950;55.840;37.442;2023-04-21T00:55:08;99660.88;;;7.62;35.59
56074;BME280;41950;55.840;37.442;2023-04-21T00:57:36;99672.03;;;7.73;35.27
56074;BME280;41950;55.840;37.442;2023-04-21T01:00:03;99606.81;;;7.36;35.14
56074;BME280;41950;55.840;37.442;2023-04-21T01:02:33;99751.81;;;8.28;35.05
56074;BME280;41950;55.840;37.442;2023-04-21T01:05:05;99755.28;;;8.21;35.16
56074;BME280;41950;55.840;37.442;2023-04-21T01:07:34;99732.13;;;8.06;35.35
56074;BME280;41950;55.840;37.442;2023-04-21T01:10:01;99482.47;;;6.66;35.19
56074;BME280;41950;55.840;37.442;2023-04-21T01:12:27;99722.66;;;8.06;35.06
56074;BME280;41950;55.840;37.442;2023-04-21T01:14:52;99571.63;;;7.22;34.88
56074;BME280;41950;55.840;37.442;2023-04-21T01:17:18;99588.81;;;7.24;34.72
56074;BME280;41950;55.840;37.442;2023-04-21T01:19:46;99654.94;;;7.51;35.05
56074;BME280;41950;55.840;37.442;2023-04-21T01:22:12;99625.72;;;7.38;34.94
56074;BME280;41950;55.840;37.442;2023-04-21T01:24:43;99704.66;;;7.88;34.87
56074;BME280;41950;55.840;37.442;2023-04-21T01:27:10;99623.13;;;7.46;34.78
56074;BME280;41950;55.840;37.442;2023-04-21T01:29:38;99612.88;;;7.31;34.98
56074;BME280;41950;55.840;37.442;2023-04-21T01:32:08;99614.56;;;7.35;35.42
56074;BME280;41950;55.840;37.442;2023-04-21T01:34:34;99714.13;;;7.91;35.14
56074;BME280;41950;55.840;37.442;2023-04-21T01:37:00;99569.13;;;7.02;35.34
56074;BME280;41950;55.840;37.442;2023-04-21T01:39:26;99567.38;;;7.08;35.10
56074;BME280;41950;55.840;37.442;2023-04-21T01:41:54;99515.06;;;6.76;35.27
56074;BME280;41950;55.840;37.442;2023-04-21T01:44:25;99444.78;;;6.28;35.38
56074;BME280;41950;55.840;37.442;2023-04-21T01:46:52;99642.88;;;7.52;35.24
56074;BME280;41950;55.840;37.442;2023-04-21T01:49:18;99673.78;;;7.65;34.90
56074;BME280;41950;55.840;37.442;2023-04-21T01:51:46;99533.97;;;6.79;34.57
56074;BME280;41950;55.840;37.442;2023-04-21T01:54:12;99486.88;;;6.36;34.75
56074;BME280;41950;55.840;37.442;2023-04-21T01:56:38;99536.63;;;6.57;34.78
56074;BME280;41950;55.840;37.442;2023-04-21T01:59:04;99468.88;;;6.24;34.25
56074;BME280;41950;55.840;37.442;2023-04-21T02:01:30;99764.09;;;7.85;34.42
56074;BME280;41950;55.840;37.442;2023-04-21T02:03:57;99456.03;;;6.10;34.65
56074;BME280;41950;55.840;37.442;2023-04-21T02:06:23;99729.75;;;7.66;34.68
56074;BME280;41950;55.840;37.442;2023-04-21T02:08:49;99458.66;;;6.03;34.57
56074;BME280;41950;55.840;37.442;2023-04-21T02:11:16;99649.94;;;7.19;34.77
56074;BME280;41950;55.840;37.442;2023-04-21T02:13:42;99568.38;;;6.74;34.86
56074;BME280;41950;55.840;37.442;2023-04-21T02:16:08;99625.00;;;7.12;34.96
56074;BME280;41950;55.840;37.442;2023-04-21T02:18:34;99499.81;;;6.19;35.35
56074;BME280;41950;55.840;37.442;2023-04-21T02:21:05;99730.63;;;7.62;35.37
56074;BME280;41950;55.840;37.442;2023-04-21T02:23:31;99546.13;;;6.45;35.29
56074;BME280;41950;55.840;37.442;2023-04-21T02:25:56;99436.31;;;5.74;35.29
56074;BME280;41950;55.840;37.442;2023-04-21T02:28:23;99468.09;;;5.96;35.61
56074;BME280;41950;55.840;37.442;2023-04-21T02:30:50;99637.13;;;6.92;35.70
56074;BME280;41950;55.840;37.442;2023-04-21T02:33:16;99650.91;;;6.91;35.68
56074;BME280;41950;55.840;37.442;2023-04-21T02:35:42;99545.34;;;6.31;35.96
56074;BME280;41950;55.840;37.442;2023-04-21T02:38:08;99538.44;;;6.24;35.65
56074;BME280;41950;55.840;37.442;2023-04-21T02:40:34;99750.50;;;7.48;36.06
56074;BME280;41950;55.840;37.442;2023-04-21T02:43:00;99624.25;;;6.76;35.67
56074;BME280;41950;55.840;37.442;2023-04-21T02:45:27;99528.16;;;6.16;35.89
56074;BME280;41950;55.840;37.442;2023-04-21T02:47:53;99717.03;;;7.21;35.67
56074;BME280;41950;55.840;37.442;2023-04-21T02:50:19;99663.81;;;6.89;35.69
56074;BME280;41950;55.840;37.442;2023-04-21T02:52:45;99587.41;;;6.35;35.86
56074;BME280;41950;55.840;37.442;2023-04-21T02:55:10;99634.56;;;6.86;35.87
56074;BME280;41950;55.840;37.442;2023-04-21T02:57:36;99564.19;;;6.39;35.60
56074;BME280;41950;55.840;37.442;2023-04-21T03:00:03;99731.56;;;7.49;35.49
56074;BME280;41950;55.840;37.442;2023-04-21T03:02:31;99631.13;;;6.91;35.54
56074;BME280;41950;55.840;37.442;2023-04-21T03:04:56;99599.38;;;6.65;35.59
56074;BME280;41950;55.840;37.442;2023-04-21T03:07:22;99577.06;;;6.59;35.38
56074;BME280;41950;55.840;37.442;2023-04-21T03:09:49;99710.13;;;7.26;35.62
56074;BME280;41950;55.840;37.442;2023-04-21T03:12:15;99621.69;;;6.86;35.70
56074;BME280;41950;55.840;37.442;2023-04-21T03:14:42;99623.38;;;6.88;35.42
56074;BME280;41950;55.840;37.442;2023-04-21T03:17:08;99630.22;;;6.98;35.63
56074;BME280;41950;55.840;37.442;2023-04-21T03:19:33;99548.69;;;6.55;35.45
56074;BME280;41950;55.840;37.442;2023-04-21T03:22:01;99674.78;;;7.37;35.51
56074;BME280;41950;55.840;37.442;2023-04-21T03:24:27;99693.69;;;7.48;35.17
56074;BME280;41950;55.840;37.442;2023-04-21T03:26:53;99763.22;;;7.89;35.19
56074;BME280;41950;55.840;37.442;2023-04-21T03:29:20;99487.75;;;6.26;34.77
56074;BME280;41950;55.840;37.442;2023-04-21T03:31:46;99628.50;;;6.97;35.42
56074;BME280;41950;55.840;37.442;2023-04-21T03:34:12;99516.06;;;6.43;35.14
56074;BME280;41950;55.840;37.442;2023-04-21T03:36:37;99709.94;;;7.67;34.96
56074;BME280;41950;55.840;37.442;2023-04-21T03:39:03;99627.56;;;7.10;35.16
56074;BME280;41950;55.840;37.442;2023-04-21T03:41:29;99488.56;;;6.46;35.10
56074;BME280;41950;55.840;37.442;2023-04-21T03:43:57;99411.34;;;6.19;34.77
56074;BME280;41950;55.840;37.442;2023-04-21T03:46:22;99642.88;;;7.55;34.87
56074;BME280;41950;55.840;37.442;2023-04-21T03:48:48;99755.16;;;8.44;34.86
56074;BME280;41950;55.840;37.442;2023-04-21T03:51:14;99556.13;;;7.22;34.65
56074;BME280;41950;55.840;37.442;2023-04-21T03:53:40;99569.03;;;7.25;34.64
56074;BME280;41950;55.840;37.442;2023-04-21T03:56:06;99544.94;;;7.23;34.51
56074;BME280;41950;55.840;37.442;2023-04-21T03:58:32;99460.94;;;6.70;34.25
56074;BME280;41950;55.840;37.442;2023-04-21T04:01:03;99722.44;;;8.39;34.40
56074;BME280;41950;55.840;37.442;2023-04-21T04:03:30;99553.41;;;7.44;34.41
56074;BME280;41950;55.840;37.442;2023-04-21T04:05:55;99477.06;;;7.07;34.41
56074;BME280;41950;55.840;37.442;2023-04-21T04:08:21;99461.59;;;7.05;34.38
56074;BME280;41950;55.840;37.442;2023-04-21T04:10:52;99489.06;;;7.19;34.38
56074;BME280;41950;55.840;37.442;2023-04-21T04:13:19;99460.69;;;7.16;34.35
56074;BME280;41950;55.840;37.442;2023-04-21T04:15:47;99665.56;;;8.37;33.95
56074;BME280;41950;55.840;37.442;2023-04-21T04:18:12;99543.63;;;7.85;33.50
56074;BME280;41950;55.840;37.442;2023-04-21T04:20:40;99643.06;;;8.50;33.43
56074;BME280;41950;55.840;37.442;2023-04-21T04:23:07;99542.78;;;7.84;33.44
56074;BME280;41950;55.840;37.442;2023-04-21T04:25:33;99529.97;;;7.70;33.21
56074;BME280;41950;55.840;37.442;2023-04-21T04:27:59;99559.84;;;8.03;33.32
56074;BME280;41950;55.840;37.442;2023-04-21T04:30:25;99651.56;;;8.61;33.34
56074;BME280;41950;55.840;37.442;2023-04-21T04:32:53;99692.69;;;8.87;33.52
56074;BME280;41950;55.840;37.442;2023-04-21T04:35:22;99480.94;;;7.63;33.31
56074;BME280;41950;55.840;37.442;2023-04-21T04:37:48;99618.81;;;8.60;33.29
56074;BME280;41950;55.840;37.442;2023-04-21T04:40:14;99522.00;;;7.93;32.69
56074;BME280;41950;55.840;37.442;2023-04-21T04:42:42;99584.44;;;8.46;32.75
56074;BME280;41950;55.840;37.442;2023-04-21T04:45:11;99597.09;;;8.72;32.79
56074;BME280;41950;55.840;37.442;2023-04-21T04:47:42;99702.53;;;9.31;32.48
56074;BME280;41950;55.840;37.442;2023-04-21T04:50:08;99587.59;;;8.72;32.51
56074;BME280;41950;55.840;37.442;2023-04-21T04:52:34;99620.97;;;8.96;32.21
56074;BME280;41950;55.840;37.442;2023-04-21T04:55:00;99505.13;;;8.45;32.42
56074;BME280;41950;55.840;37.442;2023-04-21T04:57:27;99627.44;;;9.34;32.48
56074;BME280;41950;55.840;37.442;2023-04-21T04:59:56;99579.50;;;9.01;31.77
56074;BME280;41950;55.840;37.442;2023-04-21T05:02:24;99599.94;;;9.22;31.72
56074;BME280;41950;55.840;37.442;2023-04-21T05:04:51;99702.50;;;10.00;31.59
56074;BME280;41950;55.840;37.442;2023-04-21T05:07:16;99470.34;;;8.70;31.10
56074;BME280;41950;55.840;37.442;2023-04-21T05:09:52;99722.97;;;10.23;31.12
56074;BME280;41950;55.840;37.442;2023-04-21T05:12:22;99596.84;;;9.60;31.09
56074;BME280;41950;55.840;37.442;2023-04-21T05:14:48;99458.13;;;8.81;31.04
56074;BME280;41950;55.840;37.442;2023-04-21T05:17:14;99723.38;;;10.51;30.74
56074;BME280;41950;55.840;37.442;2023-04-21T05:19:40;99652.97;;;10.18;30.19
56074;BME280;41950;55.840;37.442;2023-04-21T05:22:06;99465.38;;;9.16;30.42
56074;BME280;41950;55.840;37.442;2023-04-21T05:24:33;99636.44;;;10.27;30.50
56074;BME280;41950;55.840;37.442;2023-04-21T05:27:00;99619.84;;;10.36;30.03
56074;BME280;41950;55.840;37.442;2023-04-21T05:29:28;99620.50;;;10.48;30.18
56074;BME280;41950;55.840;37.442;2023-04-21T05:31:54;99674.47;;;10.77;29.91
56074;BME280;41950;55.840;37.442;2023-04-21T05:34:20;99620.38;;;10.55;29.64
56074;BME280;41950;55.840;37.442;2023-04-21T05:36:45;99715.38;;;11.12;29.34
56074;BME280;41950;55.840;37.442;2023-04-21T05:39:13;99681.94;;;10.96;29.23
56074;BME280;41950;55.840;37.442;2023-04-21T05:41:39;99683.47;;;11.06;28.95
56074;BME280;41950;55.840;37.442;2023-04-21T05:44:05;99603.72;;;10.66;28.76
56074;BME280;41950;55.840;37.442;2023-04-21T05:46:30;99610.47;;;10.76;28.85
56074;BME280;41950;55.840;37.442;2023-04-21T05:48:59;99701.00;;;11.38;28.81
56074;BME280;41950;55.840;37.442;2023-04-21T05:51:27;99629.06;;;11.00;28.62
56074;BME280;41950;55.840;37.442;2023-04-21T05:53:52;99717.13;;;11.55;28.34
56074;BME280;41950;55.840;37.442;2023-04-21T05:56:18;99694.72;;;11.48;28.47
56074;BME280;41950;55.840;37.442;2023-04-21T05:58:45;99634.72;;;11.19;28.31
56074;BME280;41950;55.840;37.442;2023-04-21T06:01:11;99574.69;;;10.91;28.23
56074;BME280;41950;55.840;37.442;2023-04-21T06:03:38;99622.47;;;11.25;27.81
56074;BME280;41950;55.840;37.442;2023-04-21T06:06:05;99606.06;;;11.22;27.58
56074;BME280;41950;55.840;37.442;2023-04-21T06:08:32;99709.63;;;11.83;27.75
56074;BME280;41950;55.840;37.442;2023-04-21T06:11:03;99705.94;;;11.93;27.95
56074;BME280;41950;55.840;37.442;2023-04-21T06:13:29;99704.84;;;12.02;27.90
56074;BME280;41950;55.840;37.442;2023-04-21T06:15:54;99702.19;;;12.06;27.50
56074;BME280;41950;55.840;37.442;2023-04-21T06:18:21;99646.28;;;11.86;27.27
56074;BME280;41950;55.840;37.442;2023-04-21T06:20:52;99688.19;;;12.11;26.67
56074;BME280;41950;55.840;37.442;2023-04-21T06:23:18;99678.84;;;12.02;27.04
56074;BME280;41950;55.840;37.442;2023-04-21T06:25:44;99687.22;;;12.15;27.57
56074;BME280;41950;55.840;37.442;2023-04-21T06:28:10;99675.13;;;12.14;27.29
56074;BME280;41950;55.840;37.442;2023-04-21T06:30:36;99694.63;;;12.33;27.92
56074;BME280;41950;55.840;37.442;2023-04-21T06:33:03;99675.47;;;12.35;27.61
56074;BME280;41950;55.840;37.442;2023-04-21T06:35:32;99675.16;;;12.48;27.72
56074;BME280;41950;55.840;37.442;2023-04-21T06:37:58;99697.28;;;12.65;28.63
56074;BME280;41950;55.840;37.442;2023-04-21T06:40:24;99635.25;;;12.47;28.08
56074;BME280;41950;55.840;37.442;2023-04-21T06:42:49;99678.16;;;12.66;27.58
56074;BME280;41950;55.840;37.442;2023-04-21T06:45:15;99679.00;;;12.67;27.33
56074;BME280;41950;55.840;37.442;2023-04-21T06:47:41;99682.47;;;12.67;27.91
56074;BME280;41950;55.840;37.442;2023-04-21T06:50:07;99685.72;;;12.76;27.78
56074;BME280;41950;55.840;37.442;2023-04-21T06:52:33;99674.47;;;12.74;27.91
56074;BME280;41950;55.840;37.442;2023-04-21T06:55:00;99650.19;;;12.73;28.68
56074;BME280;41950;55.840;37.442;2023-04-21T06:57:29;99676.44;;;12.98;28.30
56074;BME280;41950;55.840;37.442;2023-04-21T06:59:56;99657.63;;;12.87;27.74
56074;BME280;41950;55.840;37.442;2023-04-21T07:02:22;99669.53;;;12.97;28.15
56074;BME280;41950;55.840;37.442;2023-04-21T07:04:48;99645.72;;;12.78;27.96
56074;BME280;41950;55.840;37.442;2023-04-21T07:07:13;99638.75;;;12.79;27.92
56074;BME280;41950;55.840;37.442;2023-04-21T07:09:39;99666.53;;;13.11;27.88
56074;BME280;41950;55.840;37.442;2023-04-21T07:12:06;99680.31;;;13.14;27.55
56074;BME280;41950;55.840;37.442;2023-04-21T07:14:31;99621.06;;;12.91;27.77
56074;BME280;41950;55.840;37.442;2023-04-21T07:16:59;99628.28;;;13.11;28.37
56074;BME280;41950;55.840;37.442;2023-04-21T07:19:24;99661.94;;;13.51;28.49
56074;BME280;41950;55.840;37.442;2023-04-21T07:21:50;99665.19;;;13.58;27.95
56074;BME280;41950;55.840;37.442;2023-04-21T07:24:17;99657.81;;;13.44;26.54
56074;BME280;41950;55.840;37.442;2023-04-21T07:26:42;99660.50;;;13.40;26.43
56074;BME280;41950;55.840;37.442;2023-04-21T07:29:09;99641.97;;;13.21;26.88
56074;BME280;41950;55.840;37.442;2023-04-21T07:31:35;99593.84;;;13.02;26.17
56074;BME280;41950;55.840;37.442;2023-04-21T07:34:05;99657.06;;;13.39;26.72
56074;BME280;41950;55.840;37.442;2023-04-21T07:36:31;99592.63;;;13.13;26.43
56074;BME280;41950;55.840;37.442;2023-04-21T07:38:59;99630.22;;;13.36;25.97
56074;BME280;41950;55.840;37.442;2023-04-21T07:41:25;99618.13;;;13.33;26.20
56074;BME280;41950;55.840;37.442;2023-04-21T07:43:51;99624.13;;;13.37;26.36
56074;BME280;41950;55.840;37.442;2023-04-21T07:46:18;99651.03;;;13.67;27.04
56074;BME280;41950;55.840;37.442;2023-04-21T07:48:44;99637.94;;;13.68;27.30
56074;BME280;41950;55.840;37.442;2023-04-21T07:51:10;99627.19;;;13.79;27.64
56074;BME280;41950;55.840;37.442;2023-04-21T07:53:36;99605.56;;;13.75;26.14
56074;BME280;41950;55.840;37.442;2023-04-21T07:56:02;99627.53;;;13.95;26.70
56074;BME280;41950;55.840;37.442;2023-04-21T07:58:28;99608.53;;;13.91;26.83
56074;BME280;41950;55.840;37.442;2023-04-21T08:00:54;99617.63;;;14.06;26.74
56074;BME280;41950;55.840;37.442;2023-04-21T08:03:20;99611.19;;;14.16;26.36
56074;BME280;41950;55.840;37.442;2023-04-21T08:05:47;99566.13;;;13.84;26.14
56074;BME280;41950;55.840;37.442;2023-04-21T08:08:13;99577.59;;;14.07;26.44
56074;BME280;41950;55.840;37.442;2023-04-21T08:10:45;99614.81;;;14.38;25.90
56074;BME280;41950;55.840;37.442;2023-04-21T08:13:18;99602.97;;;14.28;26.51
56074;BME280;41950;55.840;37.442;2023-04-21T08:15:46;99581.34;;;14.25;25.79
56074;BME280;41950;55.840;37.442;2023-04-21T08:18:13;99624.78;;;14.53;25.80
56074;BME280;41950;55.840;37.442;2023-04-21T08:20:42;99509.09;;;14.00;25.61
56074;BME280;41950;55.840;37.442;2023-04-21T08:23:08;99615.03;;;14.59;25.24
56074;BME280;41950;55.840;37.442;2023-04-21T08:25:33;99606.16;;;14.63;25.89
56074;BME280;41950;55.840;37.442;2023-04-21T08:28:01;99540.16;;;14.33;25.79
56074;BME280;41950;55.840;37.442;2023-04-21T08:30:27;99545.09;;;14.40;26.28
56074;BME280;41950;55.840;37.442;2023-04-21T08:32:55;99522.69;;;14.35;25.68
56074;BME280;41950;55.840;37.442;2023-04-21T08:35:21;99551.41;;;14.35;25.21
56074;BME280;41950;55.840;37.442;2023-04-21T08:37:47;99585.22;;;14.64;25.19
56074;BME280;41950;55.840;37.442;2023-04-21T08:40:17;99591.22;;;14.66;25.93
56074;BME280;41950;55.840;37.442;2023-04-21T08:42:43;99597.09;;;14.73;25.83
56074;BME280;41950;55.840;37.442;2023-04-21T08:45:10;99517.94;;;14.46;26.58
56074;BME280;41950;55.840;37.442;2023-04-21T08:47:38;99540.41;;;14.75;26.30
56074;BME280;41950;55.840;37.442;2023-04-21T08:50:07;99553.59;;;14.95;26.01
56074;BME280;41950;55.840;37.442;2023-04-21T08:52:36;99571.22;;;15.13;25.45
56074;BME280;41950;55.840;37.442;2023-04-21T08:55:05;99540.53;;;14.95;25.87
56074;BME280;41950;55.840;37.442;2023-04-21T08:57:33;99554.16;;;15.03;25.95
56074;BME280;41950;55.840;37.442;2023-04-21T08:59:59;99565.56;;;15.24;26.59
56074;BME280;41950;55.840;37.442;2023-04-21T09:02:25;99541.19;;;15.24;26.70
56074;BME280;41950;55.840;37.442;2023-04-21T09:04:51;99527.94;;;15.28;26.56
56074;BME280;41950;55.840;37.442;2023-04-21T09:07:35;99515.06;;;15.24;25.39
56074;BME280;41950;55.840;37.442;2023-04-21T09:10:03;99548.91;;;15.27;25.64
56074;BME280;41950;55.840;37.442;2023-04-21T09:12:32;99493.94;;;15.06;26.14
56074;BME280;41950;55.840;37.442;2023-04-21T09:15:07;99495.09;;;14.76;25.84
56074;BME280;41950;55.840;37.442;2023-04-21T09:17:34;99512.47;;;14.77;26.71
56074;BME280;41950;55.840;37.442;2023-04-21T09:20:27;99546.44;;;15.24;27.46
56074;BME280;41950;55.840;37.442;2023-04-21T09:22:53;99502.09;;;15.21;27.26
56074;BME280;41950;55.840;37.442;2023-04-21T09:25:20;99535.47;;;15.59;25.76
56074;BME280;41950;55.840;37.442;2023-04-21T09:27:46;99520.53;;;15.39;25.96
56074;BME280;41950;55.840;37.442;2023-04-21T09:30:13;99471.59;;;15.21;27.40
56074;BME280;41950;55.840;37.442;2023-04-21T09:32:42;99535.13;;;15.68;27.15
56074;BME280;41950;55.840;37.442;2023-04-21T09:35:09;99514.44;;;15.62;27.04
56074;BME280;41950;55.840;37.442;2023-04-21T09:37:37;99522.16;;;15.86;27.39
56074;BME280;41950;55.840;37.442;2023-04-21T09:40:04;99472.06;;;15.74;26.07
56074;BME280;41950;55.840;37.442;2023-04-21T09:42:33;99452.38;;;15.66;26.65
56074;BME280;41950;55.840;37.442;2023-04-21T09:45:02;99520.09;;;16.14;26.46
56074;BME280;41950;55.840;37.442;2023-04-21T09:47:32;99504.84;;;16.03;26.38
56074;BME280;41950;55.840;37.442;2023-04-21T09:50:02;99523.06;;;16.06;26.91
56074;BME280;41950;55.840;37.442;2023-04-21T09:52:33;99492.56;;;16.05;27.14
56074;BME280;41950;55.840;37.442;2023-04-21T09:55:01;99477.19;;;16.18;27.08
56074;BME280;41950;55.840;37.442;2023-04-21T09:57:31;99505.16;;;16.57;26.24
56074;BME280;41950;55.840;37.442;2023-04-21T10:00:04;99481.84;;;16.71;25.65
56074;BME280;41950;55.840;37.442;2023-04-21T10:02:48;99498.28;;;17.31;26.05
56074;BME280;41950;55.840;37.442;2023-04-21T10:05:15;99479.66;;;17.54;24.39
56074;BME280;41950;55.840;37.442;2023-04-21T10:07:46;99492.13;;;17.49;24.49
56074;BME280;41950;55.840;37.442;2023-04-21T10:10:22;99483.56;;;17.82;24.44
56074;BME280;41950;55.840;37.442;2023-04-21T10:12:50;99490.69;;;18.65;24.34
56074;BME280;41950;55.840;37.442;2023-04-21T10:15:39;99490.47;;;19.01;23.86
56074;BME280;41950;55.840;37.442;2023-04-21T10:18:23;99449.97;;;18.88;24.25
56074;BME280;41950;55.840;37.442;2023-04-21T10:23:42;99489.94;;;18.78;22.92
56074;BME280;41950;55.840;37.442;2023-04-21T10:28:58;99477.38;;;19.47;23.92
56074;BME280;41950;55.840;37.442;2023-04-21T10:31:32;99428.78;;;19.22;23.18
56074;BME280;41950;55.840;37.442;2023-04-21T10:36:32;99432.00;;;19.73;22.04
56074;BME280;41950;55.840;37.442;2023-04-21T10:39:02;99467.63;;;20.09;21.54
56074;BME280;41950;55.840;37.442;2023-04-21T10:41:33;99391.28;;;19.49;22.09
56074;BME280;41950;55.840;37.442;2023-04-21T10:44:09;99440.09;;;20.28;22.98
56074;BME280;41950;55.840;37.442;2023-04-21T10:46:47;99451.78;;;20.53;21.08
56074;BME280;41950;55.840;37.442;2023-04-21T10:49:24;99456.06;;;20.96;21.12
56074;BME280;41950;55.840;37.442;2023-04-21T10:52:01;99462.44;;;21.21;21.35
56074;BME280;41950;55.840;37.442;2023-04-21T10:57:31;99428.25;;;21.05;19.74
56074;BME280;41950;55.840;37.442;2023-04-21T10:59:58;99447.75;;;21.17;19.87
56074;BME280;41950;55.840;37.442;2023-04-21T11:02:25;99443.28;;;21.32;20.05
56074;BME280;41950;55.840;37.442;2023-04-21T11:04:53;99448.41;;;21.47;19.82
56074;BME280;41950;55.840;37.442;2023-04-21T11:07:23;99447.81;;;21.56;19.62
56074;BME280;41950;55.840;37.442;2023-04-21T11:10:03;99442.97;;;21.36;18.88
56074;BME280;41950;55.840;37.442;2023-04-21T11:12:41;99416.50;;;20.96;19.74
56074;BME280;41950;55.840;37.442;2023-04-21T11:15:11;99440.91;;;21.94;19.88
56074;BME280;41950;55.840;37.442;2023-04-21T11:17:39;99440.94;;;22.44;19.62
56074;BME280;41950;55.840;37.442;2023-04-21T11:20:08;99424.13;;;22.58;19.20
56074;BME280;41950;55.840;37.442;2023-04-21T11:22:36;99391.34;;;23.21;18.68
56074;BME280;41950;55.840;37.442;2023-04-21T11:25:02;99401.56;;;23.73;17.46
56074;BME280;41950;55.840;37.442;2023-04-21T11:27:30;99381.34;;;23.84;18.18
56074;BME280;41950;55.840;37.442;2023-04-21T11:29:56;99405.75;;;23.65;17.47
56074;BME280;41950;55.840;37.442;2023-04-21T11:32:23;99375.63;;;22.08;19.25
56074;BME280;41950;55.840;37.442;2023-04-21T11:34:49;99410.22;;;20.85;19.82
56074;BME280;41950;55.840;37.442;2023-04-21T11:37:22;99415.31;;;20.74;20.23
56074;BME280;41950;55.840;37.442;2023-04-21T11:39:48;99410.66;;;21.33;19.29
56074;BME280;41950;55.840;37.442;2023-04-21T11:42:20;99398.56;;;22.08;18.20
56074;BME280;41950;55.840;37.442;2023-04-21T11:44:47;99372.13;;;22.08;18.64
56074;BME280;41950;55.840;37.442;2023-04-21T11:47:33;99402.16;;;23.66;17.95
56074;BME280;41950;55.840;37.442;2023-04-21T11:50:00;99358.34;;;24.07;17.05
56074;BME280;41950;55.840;37.442;2023-04-21T11:52:30;99385.34;;;24.79;17.17
56074;BME280;41950;55.840;37.442;2023-04-21T11:57:51;99382.63;;;23.67;16.90
56074;BME280;41950;55.840;37.442;2023-04-21T12:00:17;99330.34;;;22.75;18.36
56074;BME280;41950;55.840;37.442;2023-04-21T12:02:53;99307.22;;;22.90;16.83
56074;BME280;41950;55.840;37.442;2023-04-21T12:05:21;99353.25;;;23.35;17.10
56074;BME280;41950;55.840;37.442;2023-04-21T12:07:48;99358.94;;;23.53;16.86
56074;BME280;41950;55.840;37.442;2023-04-21T12:10:17;99297.00;;;23.66;17.33
56074;BME280;41950;55.840;37.442;2023-04-21T12:12:44;99232.31;;;23.80;17.17
56074;BME280;41950;55.840;37.442;2023-04-21T12:15:12;99325.59;;;24.30;15.77
56074;BME280;41950;55.840;37.442;2023-04-21T12:17:45;99333.91;;;23.92;15.89
56074;BME280;41950;55.840;37.442;2023-04-21T12:20:14;99367.84;;;23.76;16.56
56074;BME280;41950;55.840;37.442;2023-04-21T12:22:41;99377.28;;;24.24;17.05
56074;BME280;41950;55.840;37.442;2023-04-21T12:25:08;99345.75;;;24.44;16.75
56074;BME280;41950;55.840;37.442;2023-04-21T12:27:36;99340.38;;;24.77;16.33
56074;BME280;41950;55.840;37.442;2023-04-21T12:30:03;99360.81;;;24.98;15.92
56074;BME280;41950;55.840;37.442;2023-04-21T12:32:32;99354.63;;;24.20;16.56
56074;BME280;41950;55.840;37.442;2023-04-21T12:34:58;99341.09;;;22.72;17.66
56074;BME280;41950;55.840;37.442;2023-04-21T12:37:26;99305.38;;;20.88;19.57
56074;BME280;41950;55.840;37.442;2023-04-21T12:39:52;99230.00;;;19.75;21.14
56074;BME280;41950;55.840;37.442;2023-04-21T12:42:21;99241.84;;;19.68;21.35
56074;BME280;41950;55.840;37.442;2023-04-21T12:44:50;99358.59;;;20.81;20.86
56074;BME280;41950;55.840;37.442;2023-04-21T12:47:16;99361.50;;;20.49;20.62
56074;BME280;41950;55.840;37.442;2023-04-21T12:49:43;99338.78;;;19.61;21.02
56074;BME280;41950;55.840;37.442;2023-04-21T12:52:09;99360.03;;;19.12;21.93
56074;BME280;41950;55.840;37.442;2023-04-21T12:54:35;99323.81;;;18.72;21.46
56074;BME280;41950;55.840;37.442;2023-04-21T12:57:01;99292.75;;;19.08;21.33
56074;BME280;41950;55.840;37.442;2023-04-21T12:59:27;99347.19;;;20.25;21.02
56074;BME280;41950;55.840;37.442;2023-04-21T13:01:53;99314.53;;;20.83;20.65
56074;BME280;41950;55.840;37.442;2023-04-21T13:04:20;99320.13;;;21.18;20.18
56074;BME280;41950;55.840;37.442;2023-04-21T13:06:46;99328.28;;;21.27;20.06
56074;BME280;41950;55.840;37.442;2023-04-21T13:09:12;99307.72;;;21.06;19.47
56074;BME280;41950;55.840;37.442;2023-04-21T13:11:38;99327.78;;;21.35;19.70